createdAt,value
2022-12-11T00:03:31.677Z,35.03
2022-12-11T00:08:34.143Z,34.92
2022-12-11T00:13:37.921Z,31.65
2022-12-11T00:18:40.351Z,36.10
2022-12-11T00:23:43.188Z,33.80
2022-12-11T00:28:47.004Z,33.37
2022-12-11T00:33:49.813Z,32.95
2022-12-11T00:38:53.020Z,30.37
2022-12-11T00:43:56.778Z,32.80
2022-12-11T00:48:59.404Z,31.77
2022-12-11T00:54:01.824Z,35.10
2022-12-11T00:59:05.604Z,32.03
2022-12-11T01:04:08.027Z,33.50
2022-12-11T01:09:28.311Z,30.40
2022-12-11T01:14:32.093Z,33.42
2022-12-11T01:19:34.802Z,33.85
2022-12-11T01:24:38.048Z,33.57
2022-12-11T01:29:41.840Z,36.22
2022-12-11T01:34:44.366Z,37.05
2022-12-11T01:39:46.795Z,36.85
2022-12-11T01:45:08.013Z,37.75
2022-12-11T01:50:12.384Z,38.65
2022-12-11T01:55:15.407Z,36.13
2022-12-11T02:00:18.114Z,36.05
2022-12-11T02:05:21.962Z,36.80
2022-12-11T02:10:25.427Z,34.65
2022-12-11T02:15:32.531Z,38.53
2022-12-11T02:20:38.438Z,38.63
2022-12-11T02:25:46.464Z,36.08
2022-12-11T02:30:52.814Z,38.20
2022-12-11T02:35:55.926Z,39.30
2022-12-11T02:40:59.537Z,39.60
2022-12-11T02:51:06.640Z,37.70
2022-12-11T02:56:11.818Z,40.13
2022-12-11T03:01:14.336Z,39.67
2022-12-11T03:06:21.242Z,38.90
2022-12-11T03:11:23.655Z,41.03
2022-12-11T03:16:31.035Z,37.97
2022-12-11T03:21:38.611Z,37.05
2022-12-11T03:26:43.307Z,41.38
2022-12-11T03:31:47.037Z,37.55
2022-12-11T03:41:54.769Z,36.88
2022-12-11T03:46:58.140Z,42.03
2022-12-11T03:52:01.155Z,40.42
2022-12-11T03:57:05.973Z,37.42
2022-12-11T04:02:11.139Z,37.67
2022-12-11T04:07:13.657Z,41.05
2022-12-11T04:12:17.452Z,41.00
2022-12-11T04:17:33.999Z,40.47
2022-12-11T04:22:54.118Z,40.05
2022-12-11T04:27:57.917Z,38.42
2022-12-11T04:33:00.319Z,37.00
2022-12-11T04:38:02.789Z,39.45
2022-12-11T04:43:06.657Z,39.58
2022-12-11T04:48:09.193Z,41.58
2022-12-11T04:53:11.663Z,39.88
2022-12-11T04:58:15.432Z,42.50
2022-12-11T05:03:18.087Z,38.13
2022-12-11T05:08:21.057Z,36.75
2022-12-11T05:13:24.934Z,39.33
2022-12-11T05:18:27.378Z,40.15
2022-12-11T05:23:30.124Z,39.60
2022-12-11T05:28:35.437Z,38.87
2022-12-11T05:33:37.894Z,35.50
2022-12-11T05:38:40.281Z,38.97
2022-12-11T05:43:44.049Z,40.92
2022-12-11T05:48:47.479Z,36.15
2022-12-11T05:53:50.749Z,36.58
2022-12-11T05:58:54.962Z,37.10
2022-12-11T06:03:58.000Z,33.25
2022-12-11T06:09:00.645Z,33.28
2022-12-11T06:14:04.950Z,35.75
2022-12-11T06:19:07.364Z,34.25
2022-12-11T06:24:11.737Z,34.10
2022-12-11T06:29:15.856Z,34.35
2022-12-11T06:34:18.291Z,38.30
2022-12-11T06:39:20.852Z,34.17
2022-12-11T06:44:24.939Z,35.70
2022-12-11T06:49:27.469Z,34.15
2022-12-11T06:54:29.899Z,36.70
2022-12-11T06:59:34.646Z,34.28
2022-12-11T07:04:37.039Z,36.20
2022-12-11T07:09:40.595Z,35.92
2022-12-11T07:14:44.446Z,37.92
2022-12-11T07:19:46.874Z,35.85
2022-12-11T07:24:49.421Z,37.78
2022-12-11T07:29:53.353Z,36.38
2022-12-11T07:34:55.702Z,37.03
2022-12-11T07:39:58.118Z,34.28
2022-12-11T07:45:01.927Z,36.88
2022-12-11T07:50:04.496Z,37.28
2022-12-11T07:55:07.090Z,38.75
2022-12-11T08:00:11.819Z,37.50
2022-12-11T08:05:14.298Z,39.15
2022-12-11T08:10:16.907Z,37.60
2022-12-11T08:15:20.680Z,36.13
2022-12-11T08:20:23.071Z,41.35
2022-12-11T08:25:25.511Z,42.83
2022-12-11T08:30:29.382Z,41.58
2022-12-11T08:35:31.877Z,37.67
2022-12-11T08:40:34.352Z,39.33
2022-12-11T08:45:38.795Z,40.53
2022-12-11T08:50:41.238Z,40.08
2022-12-11T08:55:43.664Z,37.10
2022-12-11T09:00:47.463Z,36.53
2022-12-11T09:05:49.966Z,38.75
2022-12-11T09:10:52.912Z,36.85
2022-12-11T09:15:56.725Z,41.97
2022-12-11T09:20:59.848Z,41.53
2022-12-11T09:26:04.462Z,37.33
2022-12-11T09:31:10.999Z,39.25
2022-12-11T09:36:13.891Z,38.60
2022-12-11T09:41:27.928Z,36.47
2022-12-11T09:46:34.386Z,36.08
2022-12-11T09:51:39.175Z,36.42
2022-12-11T09:56:45.868Z,35.45
2022-12-11T10:01:51.822Z,33.17
2022-12-11T10:06:59.465Z,36.75
2022-12-11T10:12:06.665Z,34.13
2022-12-11T10:17:12.453Z,33.58
2022-12-11T10:22:17.988Z,33.00
2022-12-11T10:27:21.332Z,27.45
2022-12-11T10:32:29.648Z,26.05
2022-12-11T10:37:32.142Z,25.70
2022-12-11T10:42:34.583Z,25.35
2022-12-11T10:47:38.542Z,22.83
2022-12-11T10:52:45.017Z,23.00
2022-12-11T10:57:54.637Z,18.85
2022-12-11T11:02:58.894Z,21.38
2022-12-11T11:08:13.420Z,25.25
2022-12-11T11:13:15.890Z,23.63
2022-12-11T11:18:22.886Z,21.88
2022-12-11T11:23:26.370Z,19.98
2022-12-11T11:28:30.411Z,21.40
2022-12-11T11:33:34.918Z,20.13
2022-12-11T11:38:40.232Z,20.63
2022-12-11T11:43:46.451Z,18.33
2022-12-11T11:48:57.055Z,19.77
2022-12-11T11:54:01.597Z,17.92
2022-12-11T11:59:09.559Z,18.95
2022-12-11T12:04:13.479Z,20.70
2022-12-11T12:09:20.726Z,16.35
2022-12-11T12:19:53.132Z,16.65
2022-12-11T12:25:00.129Z,17.63
2022-12-11T12:30:04.137Z,17.42
2022-12-11T12:35:15.210Z,17.38
2022-12-11T12:40:21.849Z,16.25
2022-12-11T12:45:27.509Z,16.92
2022-12-11T12:50:35.888Z,16.92
2022-12-11T12:55:38.519Z,13.80
2022-12-11T13:00:42.557Z,15.90
2022-12-11T13:05:47.276Z,17.30
2022-12-11T13:11:00.558Z,15.50
2022-12-11T13:16:23.455Z,15.80
2022-12-11T13:21:29.261Z,17.95
2022-12-11T13:26:32.700Z,21.00
2022-12-11T13:31:36.260Z,17.38
2022-12-11T13:41:45.667Z,18.13
2022-12-11T13:46:48.815Z,16.85
2022-12-11T13:51:55.577Z,16.88
2022-12-11T13:57:00.512Z,17.05
2022-12-11T14:02:06.200Z,18.13
2022-12-11T14:07:09.199Z,18.30
2022-12-11T14:12:17.297Z,23.60
2022-12-11T14:17:23.339Z,21.35
2022-12-11T14:22:26.850Z,22.38
2022-12-11T14:27:30.767Z,19.95
2022-12-11T14:32:34.870Z,24.55
2022-12-11T14:37:37.484Z,26.88
2022-12-11T14:42:42.005Z,22.13
2022-12-11T14:47:45.015Z,20.02
2022-12-11T14:52:49.037Z,21.17
2022-12-11T14:57:55.186Z,20.10
2022-12-11T15:02:59.010Z,20.73
2022-12-11T15:08:02.297Z,24.65
2022-12-11T15:13:07.017Z,22.00
2022-12-11T15:18:17.471Z,22.30
2022-12-11T15:23:19.967Z,24.05
2022-12-11T15:28:31.016Z,24.95
2022-12-11T15:33:34.696Z,23.17
2022-12-11T15:38:39.520Z,22.33
2022-12-11T15:43:43.621Z,21.65
2022-12-11T15:48:46.195Z,23.77
2022-12-11T15:53:48.620Z,22.55
2022-12-11T15:58:52.614Z,21.63
2022-12-11T16:03:55.026Z,21.10
2022-12-11T16:08:57.436Z,25.02
2022-12-11T16:14:04.212Z,24.83
2022-12-11T16:19:06.670Z,25.35
2022-12-11T16:24:09.142Z,22.23
2022-12-11T16:29:12.901Z,21.88
2022-12-11T16:34:15.372Z,20.98
2022-12-11T16:39:17.863Z,20.70
2022-12-11T16:44:22.573Z,29.42
2022-12-11T16:49:25.179Z,25.73
2022-12-11T16:54:27.748Z,21.73
2022-12-11T16:59:36.915Z,19.35
2022-12-11T17:04:40.059Z,20.67
2022-12-11T17:09:42.884Z,20.07
2022-12-11T17:14:46.763Z,20.53
2022-12-11T17:19:49.229Z,20.67
2022-12-11T17:24:51.765Z,23.33
2022-12-11T17:29:55.561Z,22.30
2022-12-11T17:34:59.223Z,20.40
2022-12-11T17:45:05.624Z,17.80
2022-12-11T17:50:08.362Z,19.02
2022-12-11T17:55:11.223Z,20.77
2022-12-11T18:00:16.120Z,24.70
2022-12-11T18:05:18.545Z,22.98
2022-12-11T18:10:23.107Z,19.23
2022-12-11T18:15:27.105Z,18.88
2022-12-11T18:20:31.685Z,19.55
2022-12-11T18:25:34.468Z,22.10
2022-12-11T18:30:38.846Z,19.57
2022-12-11T18:35:42.550Z,18.70
2022-12-11T18:40:45.241Z,18.40
2022-12-11T18:45:49.117Z,24.23
2022-12-11T18:50:52.524Z,22.52
2022-12-11T18:56:00.158Z,20.30
2022-12-11T19:01:08.182Z,16.48
2022-12-11T19:06:11.674Z,18.50
2022-12-11T19:11:16.766Z,19.55
2022-12-11T19:16:21.755Z,19.45
2022-12-11T19:21:24.321Z,17.33
2022-12-11T19:26:27.089Z,17.95
2022-12-11T19:31:31.768Z,19.60
2022-12-11T19:36:36.261Z,20.58
2022-12-11T19:41:38.897Z,20.83
2022-12-11T19:46:42.763Z,20.55
2022-12-11T19:51:45.381Z,20.88
2022-12-11T19:56:48.004Z,22.95
2022-12-11T20:01:51.820Z,24.60
2022-12-11T20:06:54.299Z,20.10
2022-12-11T20:11:56.866Z,16.02
2022-12-11T20:17:16.139Z,14.70
2022-12-11T20:22:18.880Z,16.75
2022-12-11T20:27:21.413Z,16.45
2022-12-11T20:32:25.719Z,15.73
2022-12-11T20:37:29.098Z,18.10
2022-12-11T20:42:31.579Z,16.27
2022-12-11T20:47:35.677Z,15.25
2022-12-11T20:52:38.736Z,19.98
2022-12-11T20:57:45.006Z,18.08
2022-12-11T21:02:50.390Z,23.75
2022-12-11T21:07:54.597Z,17.65
2022-12-11T21:12:57.088Z,14.43
2022-12-11T21:18:00.914Z,16.27
2022-12-11T21:23:03.768Z,17.00
2022-12-11T21:28:06.259Z,15.47
2022-12-11T21:33:10.117Z,18.25
2022-12-11T21:38:12.650Z,16.92
2022-12-11T21:43:15.194Z,15.32
2022-12-11T21:48:19.066Z,16.60
2022-12-11T21:53:21.562Z,21.35
2022-12-11T21:58:23.993Z,15.88
2022-12-11T22:03:27.820Z,17.77
2022-12-11T22:08:30.334Z,18.17
2022-12-11T22:13:33.149Z,16.88
2022-12-11T22:18:36.878Z,14.53
2022-12-11T22:23:40.118Z,16.00
2022-12-11T22:28:42.607Z,18.48
2022-12-11T22:33:46.356Z,18.50
2022-12-11T22:38:48.795Z,15.95
2022-12-11T22:43:51.366Z,14.88
2022-12-11T22:48:55.499Z,15.02
2022-12-11T22:53:58.604Z,15.98
2022-12-11T22:59:01.017Z,17.00
2022-12-11T23:04:04.831Z,15.15
2022-12-11T23:09:07.706Z,16.48
2022-12-11T23:14:13.649Z,15.07
2022-12-11T23:19:22.203Z,16.33
2022-12-11T23:24:27.663Z,16.45
2022-12-11T23:29:30.170Z,14.93
2022-12-11T23:34:33.913Z,14.32
2022-12-11T23:39:36.308Z,15.48
2022-12-11T23:44:38.701Z,15.38
2022-12-11T23:49:42.459Z,15.45
2022-12-11T23:54:44.862Z,14.55
2022-12-11T23:59:47.264Z,16.08
